Time;durP1;ratioP1;P1;durP2;ratioP2;P2;SDS_P1;SDS_P2;PMS_P1;PMS_P2;Temp;Humidity;BMP_temperature;BMP_pressure;BME280_temperature;BME280_humidity;BME280_pressure;Samples;Min_cycle;Max_cycle;Signal;HPM_P1;HPM_P2
2022/07/07 00:01:50;;;;;;;0.00;0.00;;;;;;;;;;5113703;28;20118;-78
2022/07/07 00:04:16;;;;;;;0.00;0.00;;;;;;;;;;5111813;28;20132;-78
2022/07/07 00:06:42;;;;;;;0.00;0.00;;;;;;;;;;5113402;28;20546;-78
2022/07/07 00:09:08;;;;;;;0.00;0.00;;;;;;;;;;5111794;28;20075;-79
2022/07/07 00:11:34;;;;;;;0.00;0.00;;;;;;;;;;5112055;28;20123;-78
2022/07/07 00:14:00;;;;;;;0.00;0.00;;;;;;;;;;5112209;28;20130;-78
2022/07/07 00:16:26;;;;;;;0.00;0.00;;;;;;;;;;5111909;28;20126;-78
2022/07/07 00:18:53;;;;;;;0.00;0.00;;;;;;;;;;5112313;28;20127;-78
2022/07/07 00:21:19;;;;;;;0.00;0.00;;;;;;;;;;5113360;28;20040;-78
2022/07/07 00:23:45;;;;;;;0.00;0.00;;;;;;;;;;5111703;28;20101;-78
2022/07/07 00:26:11;;;;;;;0.00;0.00;;;;;;;;;;5113333;28;20040;-78
2022/07/07 00:28:37;;;;;;;0.00;0.00;;;;;;;;;;5111928;28;20044;-78
2022/07/07 00:31:03;;;;;;;0.00;0.00;;;;;;;;;;5113111;28;20036;-78
2022/07/07 00:33:29;;;;;;;0.00;0.00;;;;;;;;;;5115875;28;20390;-79
2022/07/07 00:35:55;;;;;;;0.00;0.00;;;;;;;;;;5117285;28;20382;-78
2022/07/07 00:38:21;;;;;;;0.00;0.00;;;;;;;;;;5116111;28;20157;-78
2022/07/07 00:40:51;;;;;;;0.00;0.00;;;;;;;;;;5115719;28;20166;-78
2022/07/07 00:43:17;;;;;;;0.00;0.00;;;;;;;;;;5117188;28;20065;-78
2022/07/07 00:45:46;;;;;;;0.00;0.00;;;;;;;;;;5116895;27;20071;-78
2022/07/07 00:48:12;;;;;;;0.00;0.00;;;;;;;;;;5115858;28;20355;-78
2022/07/07 00:50:38;;;;;;;0.00;0.00;;;;;;;;;;5115522;28;20039;-78
2022/07/07 00:53:04;;;;;;;0.00;0.00;;;;;;;;;;5115910;28;20051;-77
2022/07/07 00:55:30;;;;;;;0.00;0.00;;;;;;;;;;5115341;28;20092;-78
2022/07/07 00:57:57;;;;;;;0.00;0.00;;;;;;;;;;5115822;28;20047;-77
2022/07/07 01:00:23;;;;;;;0.00;0.00;;;;;;;;;;5116571;28;20483;-78
2022/07/07 01:02:49;;;;;;;0.00;0.00;;;;;;;;;;5115358;28;20043;-78
2022/07/07 01:05:16;;;;;;;0.00;0.00;;;;;;;;;;5116436;28;20067;-78
2022/07/07 01:07:43;;;;;;;0.00;0.00;;;;;;;;;;5098369;28;20042;-78
2022/07/07 01:10:09;;;;;;;0.00;0.00;;;;;;;;;;5098352;28;20111;-78
2022/07/07 01:12:37;;;;;;;0.00;0.00;;;;;;;;;;5116749;28;20032;-78
2022/07/07 01:15:04;;;;;;;0.00;0.00;;;;;;;;;;5097924;28;20078;-78
2022/07/07 01:17:30;;;;;;;0.00;0.00;;;;;;;;;;5115170;28;20086;-78
2022/07/07 01:19:56;;;;;;;0.00;0.00;;;;;;;;;;5114813;28;20104;-78
2022/07/07 01:22:23;;;;;;;0.00;0.00;;;;;;;;;;5115321;28;20143;-78
2022/07/07 01:24:49;;;;;;;0.00;0.00;;;;;;;;;;5114893;28;20075;-78
2022/07/07 01:27:16;;;;;;;0.00;0.00;;;;;;;;;;5116346;28;20071;-78
2022/07/07 01:29:44;;;;;;;0.00;0.00;;;;;;;;;;5097918;28;20036;-78
2022/07/07 01:32:10;;;;;;;0.00;0.00;;;;;;;;;;5116069;28;20161;-78
2022/07/07 01:34:40;;;;;;;0.00;0.00;;;;;;;;;;5114928;28;20047;-78
2022/07/07 01:37:06;;;;;;;0.00;0.00;;;;;;;;;;5114540;28;20047;-78
2022/07/07 01:39:33;;;;;;;0.00;0.00;;;;;;;;;;5115033;28;20118;-78
2022/07/07 01:41:59;;;;;;;0.00;0.00;;;;;;;;;;5114351;28;20401;-78
2022/07/07 01:44:25;;;;;;;0.00;0.00;;;;;;;;;;5114754;28;20558;-78
2022/07/07 01:46:51;;;;;;;0.00;0.00;;;;;;;;;;5115698;28;20071;-78
2022/07/07 01:49:17;;;;;;;0.00;0.00;;;;;;;;;;5114452;28;20088;-78
2022/07/07 01:51:43;;;;;;;0.00;0.00;;;;;;;;;;5115761;28;20036;-78
2022/07/07 01:54:10;;;;;;;0.00;0.00;;;;;;;;;;5114649;28;20040;-78
2022/07/07 01:56:36;;;;;;;0.00;0.00;;;;;;;;;;5114185;28;20058;-78
2022/07/07 01:59:02;;;;;;;0.00;0.00;;;;;;;;;;5115761;28;20043;-79
2022/07/07 02:01:28;;;;;;;0.00;0.00;;;;;;;;;;5114135;28;20479;-78
2022/07/07 02:03:54;;;;;;;0.00;0.00;;;;;;;;;;5114148;28;20054;-78
2022/07/07 02:06:20;;;;;;;0.00;0.00;;;;;;;;;;5113980;28;20042;-78
2022/07/07 02:08:46;;;;;;;0.00;0.00;;;;;;;;;;5115694;28;20043;-78
2022/07/07 02:11:12;;;;;;;0.00;0.00;;;;;;;;;;5113916;28;20039;-78
2022/07/07 02:13:42;;;;;;;0.00;0.00;;;;;;;;;;5114023;28;20168;-78
2022/07/07 02:16:08;;;;;;;0.00;0.00;;;;;;;;;;5113989;28;20040;-78
2022/07/07 02:18:35;;;;;;;0.00;0.00;;;;;;;;;;5114007;28;20066;-79
2022/07/07 02:21:02;;;;;;;0.00;0.00;;;;;;;;;;5115304;28;20043;-79
2022/07/07 02:23:28;;;;;;;0.00;0.00;;;;;;;;;;5113931;28;20040;-78
2022/07/07 02:25:54;;;;;;;0.00;0.00;;;;;;;;;;5113655;28;20035;-79
2022/07/07 02:28:22;;;;;;;0.00;0.00;;;;;;;;;;5115367;28;20047;-79
2022/07/07 02:30:50;;;;;;;0.00;0.00;;;;;;;;;;5113801;28;20078;-79
2022/07/07 02:33:16;;;;;;;0.00;0.00;;;;;;;;;;5115184;28;20406;-78
2022/07/07 02:35:42;;;;;;;0.00;0.00;;;;;;;;;;5113479;28;20050;-78
2022/07/07 02:38:08;;;;;;;0.00;0.00;;;;;;;;;;5113587;28;20069;-78
2022/07/07 02:40:34;;;;;;;0.00;0.00;;;;;;;;;;5114733;28;20081;-78
2022/07/07 02:43:00;;;;;;;0.00;0.00;;;;;;;;;;5114626;28;20044;-78
2022/07/07 02:45:26;;;;;;;0.00;0.00;;;;;;;;;;5113345;28;20505;-78
2022/07/07 02:47:52;;;;;;;0.00;0.00;;;;;;;;;;5113514;28;20123;-79
2022/07/07 02:50:18;;;;;;;0.00;0.00;;;;;;;;;;5113624;28;20465;-79
2022/07/07 02:52:44;;;;;;;0.00;0.00;;;;;;;;;;5113444;28;20397;-79
2022/07/07 02:55:10;;;;;;;0.00;0.00;;;;;;;;;;5113344;28;20043;-79
2022/07/07 02:57:36;;;;;;;0.00;0.00;;;;;;;;;;5112998;28;20051;-79
2022/07/07 03:00:07;;;;;;;0.00;0.00;;;;;;;;;;5113140;28;20044;-79
2022/07/07 03:02:33;;;;;;;0.00;0.00;;;;;;;;;;5114484;28;20378;-79
2022/07/07 03:04:59;;;;;;;0.00;0.00;;;;;;;;;;5112938;28;20054;-79
2022/07/07 03:07:25;;;;;;;0.00;0.00;;;;;;;;;;5113121;28;20149;-79
2022/07/07 03:09:51;;;;;;;0.00;0.00;;;;;;;;;;5113364;28;20133;-78
2022/07/07 03:12:17;;;;;;;0.00;0.00;;;;;;;;;;5112777;28;20532;-79
2022/07/07 03:14:43;;;;;;;0.00;0.00;;;;;;;;;;5114082;28;20143;-78
2022/07/07 03:17:09;;;;;;;0.00;0.00;;;;;;;;;;5112957;28;20040;-78
2022/07/07 03:19:35;;;;;;;0.00;0.00;;;;;;;;;;5112829;28;20108;-79
2022/07/07 03:22:01;;;;;;;0.00;0.00;;;;;;;;;;5112533;28;20054;-78
2022/07/07 03:24:29;;;;;;;0.00;0.00;;;;;;;;;;5114068;28;20044;-78
2022/07/07 03:26:55;;;;;;;0.00;0.00;;;;;;;;;;5112577;28;20364;-78
2022/07/07 03:29:21;;;;;;;0.00;0.00;;;;;;;;;;5112645;28;20077;-78
2022/07/07 03:31:47;;;;;;;0.00;0.00;;;;;;;;;;5113909;28;20035;-78
2022/07/07 03:34:13;;;;;;;0.00;0.00;;;;;;;;;;5112306;28;20105;-79
2022/07/07 03:36:39;;;;;;;0.00;0.00;;;;;;;;;;5113754;28;20040;-78
2022/07/07 03:39:05;;;;;;;0.00;0.00;;;;;;;;;;5113729;27;20100;-78
2022/07/07 03:41:31;;;;;;;0.00;0.00;;;;;;;;;;5113374;28;20051;-78
2022/07/07 03:43:57;;;;;;;0.00;0.00;;;;;;;;;;5095179;28;20246;-78
2022/07/07 03:46:23;;;;;;;0.00;0.00;;;;;;;;;;5112263;28;20089;-78
2022/07/07 03:48:49;;;;;;;0.00;0.00;;;;;;;;;;5113591;28;20076;-78
2022/07/07 03:51:15;;;;;;;0.00;0.00;;;;;;;;;;5113777;28;20386;-79
2022/07/07 03:53:41;;;;;;;0.00;0.00;;;;;;;;;;5112210;28;20046;-79
2022/07/07 03:56:07;;;;;;;0.00;0.00;;;;;;;;;;5112186;28;20043;-79
2022/07/07 03:58:33;;;;;;;0.00;0.00;;;;;;;;;;5113336;28;20360;-79
2022/07/07 04:01:02;;;;;;;0.00;0.00;;;;;;;;;;5112453;28;20086;-79
2022/07/07 04:03:28;;;;;;;0.00;0.00;;;;;;;;;;5111777;28;20043;-79
2022/07/07 04:05:54;;;;;;;0.00;0.00;;;;;;;;;;5113483;28;20047;-79
2022/07/07 04:08:20;;;;;;;0.00;0.00;;;;;;;;;;5111548;28;20040;-79
2022/07/07 04:10:46;;;;;;;0.00;0.00;;;;;;;;;;5112243;28;20082;-79
2022/07/07 04:13:12;;;;;;;0.00;0.00;;;;;;;;;;5113125;28;20035;-79
2022/07/07 04:15:38;;;;;;;0.00;0.00;;;;;;;;;;5111927;28;20047;-79
2022/07/07 04:18:04;;;;;;;0.00;0.00;;;;;;;;;;5111917;28;20039;-78
2022/07/07 04:20:30;;;;;;;0.00;0.00;;;;;;;;;;5112044;28;20501;-78
2022/07/07 04:22:56;;;;;;;0.00;0.00;;;;;;;;;;5111945;28;20435;-79
2022/07/07 04:25:23;;;;;;;0.00;0.00;;;;;;;;;;5112018;28;20051;-79
2022/07/07 04:27:49;;;;;;;0.00;0.00;;;;;;;;;;5113256;28;20122;-78
2022/07/07 04:30:15;;;;;;;0.00;0.00;;;;;;;;;;5112205;28;20181;-78
2022/07/07 04:32:41;;;;;;;0.00;0.00;;;;;;;;;;5111708;28;20039;-78
2022/07/07 04:35:08;;;;;;;0.00;0.00;;;;;;;;;;5111807;28;20130;-79
2022/07/07 04:37:34;;;;;;;0.00;0.00;;;;;;;;;;5111919;28;20048;-79
2022/07/07 04:40:00;;;;;;;0.00;0.00;;;;;;;;;;5111955;28;20516;-79
2022/07/07 04:42:26;;;;;;;0.00;0.00;;;;;;;;;;5111671;28;20091;-78
2022/07/07 04:44:52;;;;;;;0.00;0.00;;;;;;;;;;5111655;28;20043;-79
2022/07/07 04:47:18;;;;;;;0.00;0.00;;;;;;;;;;5094877;28;20035;-79
2022/07/07 04:49:44;;;;;;;0.00;0.00;;;;;;;;;;5112068;28;20382;-79
2022/07/07 04:52:14;;;;;;;0.15;0.03;;;;;;;;;;5112824;28;20038;-79
2022/07/07 04:54:40;;;;;;;0.00;0.00;;;;;;;;;;5111885;28;20431;-79
2022/07/07 04:57:06;;;;;;;0.00;0.00;;;;;;;;;;5113002;28;20044;-78
2022/07/07 04:59:31;;;;;;;0.00;0.00;;;;;;;;;;5094729;28;20047;-78
2022/07/07 05:01:57;;;;;;;0.00;0.00;;;;;;;;;;5111833;28;20100;-79
2022/07/07 05:04:23;;;;;;;0.00;0.00;;;;;;;;;;5111406;28;20047;-78
2022/07/07 05:06:49;;;;;;;0.00;0.00;;;;;;;;;;5112857;28;20588;-79
2022/07/07 05:09:15;;;;;;;0.00;0.00;;;;;;;;;;5111284;28;20046;-79
2022/07/07 05:11:41;;;;;;;0.00;0.00;;;;;;;;;;5111585;28;20076;-78
2022/07/07 05:14:07;;;;;;;0.00;0.00;;;;;;;;;;5112576;28;20116;-78
2022/07/07 05:16:34;;;;;;;0.00;0.00;;;;;;;;;;5111479;28;20054;-78
2022/07/07 05:19:00;;;;;;;0.00;0.00;;;;;;;;;;5112627;28;20043;-78
2022/07/07 05:21:26;;;;;;;0.00;0.00;;;;;;;;;;5116554;28;20054;-79
2022/07/07 05:23:52;;;;;;;0.00;0.00;;;;;;;;;;5114644;28;20054;-79
2022/07/07 05:26:18;;;;;;;0.00;0.00;;;;;;;;;;5115018;28;20123;-79
2022/07/07 05:28:44;;;;;;;0.00;0.00;;;;;;;;;;5114646;28;20433;-78
2022/07/07 05:31:15;;;;;;;0.00;0.00;;;;;;;;;;5115271;28;20055;-79
2022/07/07 05:33:41;;;;;;;0.00;0.00;;;;;;;;;;5114757;28;20057;-79
2022/07/07 05:36:08;;;;;;;0.00;0.00;;;;;;;;;;5116298;28;20074;-79
2022/07/07 05:38:34;;;;;;;0.00;0.00;;;;;;;;;;5097867;28;20455;-79
2022/07/07 05:41:00;;;;;;;0.00;0.00;;;;;;;;;;5114810;28;20485;-79
2022/07/07 05:43:26;;;;;;;0.00;0.00;;;;;;;;;;5115796;28;20055;-79
2022/07/07 05:45:52;;;;;;;0.00;0.00;;;;;;;;;;5116067;28;20067;-79
2022/07/07 05:48:18;;;;;;;0.00;0.00;;;;;;;;;;5115767;28;20047;-79
2022/07/07 05:50:44;;;;;;;0.00;0.00;;;;;;;;;;5114674;28;20391;-79
2022/07/07 05:53:11;;;;;;;0.00;0.00;;;;;;;;;;5114235;28;20039;-79
2022/07/07 05:55:37;;;;;;;0.00;0.00;;;;;;;;;;5114415;28;20101;-79
2022/07/07 05:58:03;;;;;;;0.00;0.00;;;;;;;;;;5114195;28;20122;-80
2022/07/07 06:00:29;;;;;;;0.00;0.00;;;;;;;;;;5115807;28;20031;-79
2022/07/07 06:02:55;;;;;;;0.00;0.00;;;;;;;;;;5114266;28;20398;-79
2022/07/07 06:05:22;;;;;;;0.00;0.00;;;;;;;;;;5115442;28;20031;-79
2022/07/07 06:07:48;;;;;;;0.00;0.00;;;;;;;;;;5114010;28;20138;-78
2022/07/07 06:10:14;;;;;;;0.00;0.00;;;;;;;;;;5114149;28;20044;-79
2022/07/07 06:12:41;;;;;;;0.00;0.00;;;;;;;;;;5115508;28;20036;-78
2022/07/07 06:15:07;;;;;;;0.00;0.00;;;;;;;;;;5115027;28;20443;-79
2022/07/07 06:17:33;;;;;;;0.00;0.00;;;;;;;;;;5114119;28;20039;-78
2022/07/07 06:19:59;;;;;;;0.00;0.00;;;;;;;;;;5096627;28;20058;-78
2022/07/07 06:22:26;;;;;;;0.00;0.00;;;;;;;;;;5114032;28;20036;-78
2022/07/07 06:24:52;;;;;;;0.00;0.00;;;;;;;;;;5113565;28;20051;-78
2022/07/07 06:27:18;;;;;;;0.00;0.00;;;;;;;;;;5103031;28;20501;-79
2022/07/07 06:29:45;;;;;;;0.00;0.00;;;;;;;;;;5112819;28;20050;-79
2022/07/07 06:32:11;;;;;;;0.00;0.00;;;;;;;;;;5112985;28;20050;-79
2022/07/07 06:34:37;;;;;;;0.00;0.00;;;;;;;;;;5112730;28;20141;-79
2022/07/07 06:37:03;;;;;;;0.00;0.00;;;;;;;;;;5096132;28;20039;-78
2022/07/07 06:39:29;;;;;;;0.00;0.00;;;;;;;;;;5096184;28;20416;-79
2022/07/07 06:41:55;;;;;;;0.00;0.00;;;;;;;;;;5112865;28;20117;-78
2022/07/07 06:44:21;;;;;;;0.00;0.00;;;;;;;;;;5112831;28;20054;-79
2022/07/07 06:46:47;;;;;;;0.00;0.00;;;;;;;;;;5112983;28;20044;-81
2022/07/07 06:49:13;;;;;;;0.00;0.00;;;;;;;;;;5095579;28;20067;-82
2022/07/07 06:51:39;;;;;;;0.00;0.00;;;;;;;;;;5112821;28;20071;-78
2022/07/07 06:54:05;;;;;;;0.00;0.00;;;;;;;;;;5112451;28;20542;-80
2022/07/07 06:56:31;;;;;;;0.00;0.00;;;;;;;;;;5112844;28;20395;-81
2022/07/07 06:58:57;;;;;;;0.00;0.00;;;;;;;;;;5112908;28;20051;-80
2022/07/07 07:01:23;;;;;;;0.00;0.00;;;;;;;;;;5112846;28;20043;-78
2022/07/07 07:03:49;;;;;;;0.00;0.00;;;;;;;;;;5112217;28;20150;-80
2022/07/07 07:06:15;;;;;;;0.00;0.00;;;;;;;;;;5112523;28;20038;-80
2022/07/07 07:08:41;;;;;;;0.00;0.00;;;;;;;;;;5112381;28;20039;-80
2022/07/07 07:11:07;;;;;;;0.00;0.00;;;;;;;;;;5112688;28;20039;-79
2022/07/07 07:13:33;;;;;;;0.00;0.00;;;;;;;;;;5112545;28;20040;-79
2022/07/07 07:15:59;;;;;;;0.00;0.00;;;;;;;;;;5112589;28;20039;-80
2022/07/07 07:18:25;;;;;;;0.00;0.00;;;;;;;;;;5111976;28;20093;-81
2022/07/07 07:20:51;;;;;;;0.00;0.00;;;;;;;;;;5112318;28;20145;-80
2022/07/07 07:23:17;;;;;;;0.00;0.00;;;;;;;;;;5113595;28;20053;-79
2022/07/07 07:25:44;;;;;;;0.00;0.00;;;;;;;;;;5111677;28;20065;-80
2022/07/07 07:28:10;;;;;;;0.00;0.00;;;;;;;;;;5113679;28;20040;-79
2022/07/07 07:30:36;;;;;;;0.00;0.00;;;;;;;;;;5111877;28;20045;-80
2022/07/07 07:33:03;;;;;;;0.00;0.00;;;;;;;;;;5112365;28;20118;-80
2022/07/07 07:35:29;;;;;;;0.00;0.00;;;;;;;;;;5112076;28;20375;-79
2022/07/07 07:37:55;;;;;;;0.00;0.00;;;;;;;;;;5111901;28;20405;-80
2022/07/07 07:40:21;;;;;;;0.00;0.00;;;;;;;;;;5112006;28;20031;-79
2022/07/07 07:42:47;;;;;;;0.00;0.00;;;;;;;;;;5111109;28;20111;-79
2022/07/07 07:45:13;;;;;;;0.00;0.00;;;;;;;;;;5112678;28;20504;-79
2022/07/07 07:47:41;;;;;;;0.00;0.00;;;;;;;;;;5083630;28;20123;-80
2022/07/07 07:50:08;;;;;;;0.00;0.00;;;;;;;;;;5096758;28;20997;-80
2022/07/07 07:52:34;;;;;;;0.00;0.00;;;;;;;;;;5113492;28;20506;-80
2022/07/07 07:55:00;;;;;;;0.00;0.00;;;;;;;;;;5111914;28;20040;-81
2022/07/07 07:57:26;;;;;;;0.00;0.00;;;;;;;;;;5095191;28;20039;-81
2022/07/07 07:59:52;;;;;;;0.00;0.00;;;;;;;;;;5112199;28;20118;-80
2022/07/07 08:02:18;;;;;;;0.00;0.00;;;;;;;;;;5112125;28;20487;-81
2022/07/07 08:04:44;;;;;;;0.00;0.00;;;;;;;;;;5111783;28;20100;-81
2022/07/07 08:07:10;;;;;;;0.00;0.00;;;;;;;;;;5095338;28;20133;-80
2022/07/07 08:09:36;;;;;;;0.00;0.00;;;;;;;;;;5112181;28;20050;-81
2022/07/07 08:12:02;;;;;;;0.00;0.00;;;;;;;;;;5112103;28;20555;-80
2022/07/07 08:14:28;;;;;;;0.00;0.00;;;;;;;;;;5111620;28;20048;-80
2022/07/07 08:16:54;;;;;;;0.00;0.00;;;;;;;;;;5095314;28;20079;-80
2022/07/07 08:19:20;;;;;;;0.00;0.00;;;;;;;;;;5112059;28;20036;-81
2022/07/07 08:21:50;;;;;;;0.00;0.00;;;;;;;;;;5113534;28;20035;-80
2022/07/07 08:24:17;;;;;;;0.00;0.00;;;;;;;;;;5111548;28;20509;-80
2022/07/07 08:26:43;;;;;;;0.00;0.00;;;;;;;;;;5111981;28;20078;-81
2022/07/07 08:29:09;;;;;;;0.00;0.00;;;;;;;;;;5111847;28;20031;-84
2022/07/07 08:31:35;;;;;;;0.00;0.00;;;;;;;;;;5111892;28;20417;-82
2022/07/07 08:34:01;;;;;;;0.00;0.00;;;;;;;;;;5111717;28;20032;-81
2022/07/07 08:36:27;;;;;;;0.00;0.00;;;;;;;;;;5113175;28;20036;-79
2022/07/07 08:38:53;;;;;;;0.00;0.00;;;;;;;;;;5112023;28;20440;-80
2022/07/07 08:41:19;;;;;;;0.00;0.00;;;;;;;;;;5111394;28;20052;-80
2022/07/07 08:43:45;;;;;;;0.00;0.00;;;;;;;;;;5111756;28;20433;-80
2022/07/07 08:46:12;;;;;;;0.00;0.00;;;;;;;;;;5111510;28;20451;-82
2022/07/07 08:48:38;;;;;;;0.00;0.00;;;;;;;;;;5111874;28;20040;-80
2022/07/07 08:51:04;;;;;;;0.00;0.00;;;;;;;;;;5112888;28;20042;-80
2022/07/07 08:53:34;;;;;;;0.00;0.00;;;;;;;;;;5113847;28;20044;-80
2022/07/07 08:56:03;;;;;;;0.35;0.10;;;;;;;;;;5115476;28;20039;-79
2022/07/07 08:58:29;;;;;;;0.00;0.00;;;;;;;;;;5115797;28;20043;-78
2022/07/07 09:00:55;;;;;;;0.00;0.00;;;;;;;;;;5118767;28;20040;-80
2022/07/07 09:03:21;;;;;;;0.00;0.00;;;;;;;;;;5115622;28;20077;-80
2022/07/07 09:05:49;;;;;;;0.00;0.00;;;;;;;;;;5115301;28;20114;-80
2022/07/07 09:08:18;;;;;;;0.00;0.00;;;;;;;;;;5115300;28;20145;-80
2022/07/07 09:10:47;;;;;;;0.00;0.00;;;;;;;;;;5114962;28;20046;-81
2022/07/07 09:13:32;;;;;;;0.00;0.00;;;;;;;;;;5116584;28;20072;-80
2022/07/07 09:16:04;;;;;;;0.00;0.00;;;;;;;;;;5115221;28;20039;-81
2022/07/07 09:18:30;;;;;;;0.00;0.00;;;;;;;;;;5098409;28;20043;-80
2022/07/07 09:20:56;;;;;;;0.00;0.00;;;;;;;;;;5114908;28;20050;-84
2022/07/07 09:23:22;;;;;;;0.00;0.00;;;;;;;;;;5114776;28;20089;-81
2022/07/07 09:25:48;;;;;;;0.00;0.00;;;;;;;;;;5114654;28;20058;-81
2022/07/07 09:28:14;;;;;;;0.00;0.00;;;;;;;;;;5115628;28;20040;-80
2022/07/07 09:30:41;;;;;;;0.00;0.00;;;;;;;;;;5116247;28;20486;-81
2022/07/07 09:33:11;;;;;;;0.00;0.00;;;;;;;;;;5115009;28;20035;-80
2022/07/07 09:38:23;;;;;;;0.00;0.00;;;;;;;;;;5114861;28;20040;-81
2022/07/07 09:40:51;;;;;;;0.00;0.00;;;;;;;;;;5114309;28;20065;-81
2022/07/07 09:43:17;;;;;;;0.00;0.00;;;;;;;;;;5114630;28;20043;-81
2022/07/07 09:45:43;;;;;;;0.00;0.00;;;;;;;;;;5114320;28;20395;-84
2022/07/07 09:48:09;;;;;;;0.00;0.00;;;;;;;;;;5114675;28;20040;-80
2022/07/07 09:50:35;;;;;;;0.00;0.00;;;;;;;;;;5114317;28;20079;-80
2022/07/07 09:53:07;;;;;;;0.00;0.00;;;;;;;;;;5115691;28;20561;-80
2022/07/07 09:55:33;;;;;;;0.00;0.00;;;;;;;;;;5114240;28;20040;-81
2022/07/07 09:57:59;;;;;;;0.00;0.00;;;;;;;;;;5078865;28;20047;-81
2022/07/07 10:00:25;;;;;;;0.00;0.00;;;;;;;;;;5093723;28;20051;-81
2022/07/07 10:02:52;;;;;;;0.00;0.00;;;;;;;;;;5095300;28;20052;-80
2022/07/07 10:05:19;;;;;;;0.00;0.00;;;;;;;;;;5104037;28;20051;-82
2022/07/07 10:07:50;;;;;;;0.00;0.00;;;;;;;;;;5099534;28;20043;-81
2022/07/07 10:10:19;;;;;;;0.00;0.00;;;;;;;;;;5093647;28;20035;-82
2022/07/07 10:12:46;;;;;;;0.00;0.00;;;;;;;;;;5095081;28;20440;-82
2022/07/07 10:15:12;;;;;;;0.00;0.00;;;;;;;;;;5093317;28;20043;-82
2022/07/07 10:17:39;;;;;;;0.00;0.00;;;;;;;;;;5093506;28;20398;-81
2022/07/07 10:20:06;;;;;;;0.00;0.00;;;;;;;;;;5095570;28;20048;-82
2022/07/07 10:22:32;;;;;;;0.00;0.00;;;;;;;;;;5113288;28;20059;-81
2022/07/07 10:25:00;;;;;;;0.00;0.00;;;;;;;;;;5115127;28;20039;-81
2022/07/07 10:27:27;;;;;;;0.00;0.00;;;;;;;;;;5112490;28;20078;-82
2022/07/07 10:29:59;;;;;;;0.00;0.00;;;;;;;;;;5113950;28;20046;-81
2022/07/07 10:32:25;;;;;;;0.00;0.00;;;;;;;;;;5113556;28;20201;-82
2022/07/07 10:34:53;;;;;;;0.00;0.00;;;;;;;;;;5113876;28;20240;-82
2022/07/07 10:37:20;;;;;;;0.00;0.00;;;;;;;;;;5096308;28;20477;-82
2022/07/07 10:39:54;;;;;;;0.00;0.00;;;;;;;;;;5113664;28;20044;-81
2022/07/07 10:42:44;;;;;;;0.00;0.00;;;;;;;;;;5114423;28;20079;-81
2022/07/07 10:45:11;;;;;;;0.00;0.00;;;;;;;;;;5114561;28;20506;-82
2022/07/07 10:47:37;;;;;;;0.00;0.00;;;;;;;;;;5113196;28;20054;-82
2022/07/07 10:50:21;;;;;;;0.00;0.00;;;;;;;;;;5096843;28;20039;-82
2022/07/07 10:52:49;;;;;;;0.00;0.00;;;;;;;;;;5112081;28;20051;-82
2022/07/07 10:55:15;;;;;;;0.00;0.00;;;;;;;;;;5114659;28;20047;-82
2022/07/07 10:57:41;;;;;;;0.00;0.00;;;;;;;;;;5114225;28;20119;-82
2022/07/07 11:00:08;;;;;;;0.00;0.00;;;;;;;;;;5113169;28;20510;-81
2022/07/07 11:02:37;;;;;;;0.00;0.00;;;;;;;;;;5113053;28;20039;-82
2022/07/07 11:05:24;;;;;;;0.00;0.00;;;;;;;;;;5112920;28;20083;-82
2022/07/07 11:07:56;;;;;;;0.00;0.00;;;;;;;;;;5112709;28;20032;-82
2022/07/07 11:10:23;;;;;;;0.00;0.00;;;;;;;;;;5114504;28;20031;-81
2022/07/07 11:12:52;;;;;;;0.00;0.00;;;;;;;;;;5113091;28;20043;-81
2022/07/07 11:15:21;;;;;;;0.00;0.00;;;;;;;;;;5114078;28;20172;-82
2022/07/07 11:17:48;;;;;;;0.00;0.00;;;;;;;;;;5112622;28;20047;-83
2022/07/07 11:20:18;;;;;;;0.00;0.00;;;;;;;;;;5114316;28;20047;-84
2022/07/07 11:22:44;;;;;;;0.00;0.00;;;;;;;;;;5112597;28;20052;-82
2022/07/07 11:25:11;;;;;;;0.00;0.00;;;;;;;;;;5112558;28;20110;-83
2022/07/07 11:27:38;;;;;;;0.00;0.00;;;;;;;;;;5112442;28;20048;-82
2022/07/07 11:30:04;;;;;;;0.00;0.00;;;;;;;;;;5113249;28;20047;-82
2022/07/07 11:32:37;;;;;;;0.00;0.00;;;;;;;;;;5112310;28;20046;-82
2022/07/07 11:35:13;;;;;;;2.03;0.98;;;;;;;;;;5112678;28;20047;-83
2022/07/07 11:37:40;;;;;;;0.00;0.00;;;;;;;;;;5112293;28;20093;-83
2022/07/07 11:40:22;;;;;;;0.00;0.00;;;;;;;;;;5112394;28;20050;-82
2022/07/07 11:42:49;;;;;;;0.00;0.00;;;;;;;;;;5112061;28;20056;-82
2022/07/07 11:45:19;;;;;;;0.00;0.00;;;;;;;;;;5111310;28;20048;-81
2022/07/07 11:47:45;;;;;;;0.00;0.00;;;;;;;;;;5112407;28;20569;-82
2022/07/07 11:50:11;;;;;;;0.00;0.00;;;;;;;;;;5112238;28;20491;-83
2022/07/07 11:52:37;;;;;;;0.00;0.00;;;;;;;;;;5112004;28;20395;-82
2022/07/07 11:55:04;;;;;;;0.00;0.00;;;;;;;;;;5112362;28;20044;-82
2022/07/07 11:57:32;;;;;;;0.00;0.00;;;;;;;;;;5111997;28;20085;-83
2022/07/07 12:00:28;;;;;;;0.00;0.00;;;;;;;;;;5113597;28;20050;-82
2022/07/07 12:02:56;;;;;;;0.00;0.00;;;;;;;;;;5108363;28;20065;-82
2022/07/07 12:05:24;;;;;;;0.00;0.00;;;;;;;;;;5113368;28;20183;-82
2022/07/07 12:08:09;;;;;;;0.00;0.00;;;;;;;;;;5112021;28;20043;-82
2022/07/07 12:10:39;;;;;;;0.00;0.00;;;;;;;;;;5112091;28;20040;-82
2022/07/07 12:13:06;;;;;;;0.00;0.00;;;;;;;;;;5110725;28;20042;-82
2022/07/07 12:15:34;;;;;;;0.00;0.00;;;;;;;;;;5113152;28;20521;-82
2022/07/07 12:18:00;;;;;;;0.00;0.00;;;;;;;;;;5112021;28;20374;-82
2022/07/07 12:20:27;;;;;;;0.00;0.00;;;;;;;;;;5111884;28;20044;-82
2022/07/07 12:23:03;;;;;;;0.00;0.00;;;;;;;;;;5111789;28;20055;-82
2022/07/07 12:25:31;;;;;;;0.00;0.00;;;;;;;;;;5111845;28;20043;-82
2022/07/07 12:28:00;;;;;;;0.00;0.00;;;;;;;;;;5113185;28;20055;-82
2022/07/07 12:30:26;;;;;;;0.00;0.00;;;;;;;;;;5116232;28;20040;-82
2022/07/07 12:32:53;;;;;;;0.00;0.00;;;;;;;;;;5098847;28;20071;-82
2022/07/07 12:35:45;;;;;;;0.00;0.00;;;;;;;;;;5115972;28;20051;-82
2022/07/07 12:38:12;;;;;;;0.00;0.00;;;;;;;;;;5096980;28;20055;-82
2022/07/07 12:40:40;;;;;;;0.00;0.00;;;;;;;;;;5115686;28;20500;-82
2022/07/07 12:43:07;;;;;;;0.00;0.00;;;;;;;;;;5098711;28;20075;-82
2022/07/07 12:45:34;;;;;;;0.00;0.00;;;;;;;;;;5115657;28;20098;-82
2022/07/07 12:48:00;;;;;;;0.00;0.00;;;;;;;;;;5115549;28;20044;-82
2022/07/07 12:50:27;;;;;;;0.00;0.00;;;;;;;;;;5117266;28;20106;-83
2022/07/07 12:53:00;;;;;;;0.00;0.00;;;;;;;;;;5098586;28;20096;-82
2022/07/07 12:55:34;;;;;;;0.00;0.00;;;;;;;;;;5115581;28;20104;-83
2022/07/07 12:58:04;;;;;;;0.00;0.00;;;;;;;;;;5115247;28;20040;-82
2022/07/07 13:00:30;;;;;;;0.00;0.00;;;;;;;;;;5098543;28;20075;-82
2022/07/07 13:02:56;;;;;;;0.00;0.00;;;;;;;;;;5115348;28;20078;-83
2022/07/07 13:05:22;;;;;;;0.00;0.00;;;;;;;;;;5115360;28;20390;-83
2022/07/07 13:07:48;;;;;;;0.00;0.00;;;;;;;;;;5115132;28;20035;-83
2022/07/07 13:10:14;;;;;;;0.00;0.00;;;;;;;;;;5115392;28;20039;-83
2022/07/07 13:12:40;;;;;;;0.00;0.00;;;;;;;;;;5115279;28;20046;-83
2022/07/07 13:15:06;;;;;;;0.00;0.00;;;;;;;;;;5115188;28;20039;-83
2022/07/07 13:17:33;;;;;;;0.00;0.00;;;;;;;;;;5114894;28;20406;-82
2022/07/07 13:19:59;;;;;;;0.00;0.00;;;;;;;;;;5115113;28;20044;-82
2022/07/07 13:22:25;;;;;;;0.00;0.00;;;;;;;;;;5114824;28;20043;-82
2022/07/07 13:24:50;;;;;;;0.00;0.00;;;;;;;;;;5116165;28;20044;-83
2022/07/07 13:27:16;;;;;;;0.00;0.00;;;;;;;;;;5096935;28;20401;-83
2022/07/07 13:29:42;;;;;;;0.05;0.05;;;;;;;;;;5115007;28;20119;-83
2022/07/07 13:32:08;;;;;;;0.00;0.00;;;;;;;;;;5114931;28;20047;-82
2022/07/07 13:34:34;;;;;;;0.00;0.00;;;;;;;;;;5097907;28;20510;-82
2022/07/07 13:37:00;;;;;;;0.00;0.00;;;;;;;;;;5114876;28;20063;-82
2022/07/07 13:39:26;;;;;;;0.00;0.00;;;;;;;;;;5113345;28;20411;-83
2022/07/07 13:41:52;;;;;;;0.00;0.00;;;;;;;;;;5114769;28;20055;-83
2022/07/07 13:44:18;;;;;;;0.00;0.00;;;;;;;;;;5114333;28;20555;-82
2022/07/07 13:46:45;;;;;;;0.00;0.00;;;;;;;;;;5114907;28;20067;-82
2022/07/07 13:49:11;;;;;;;0.00;0.00;;;;;;;;;;5114693;28;20344;-83
2022/07/07 13:51:40;;;;;;;0.00;0.00;;;;;;;;;;5115887;28;20057;-83
2022/07/07 13:54:06;;;;;;;0.00;0.00;;;;;;;;;;5114171;28;20055;-83
2022/07/07 13:56:32;;;;;;;0.00;0.00;;;;;;;;;;5114472;28;20039;-83
2022/07/07 13:58:58;;;;;;;0.00;0.00;;;;;;;;;;5114434;28;20112;-82
2022/07/07 14:01:24;;;;;;;0.00;0.00;;;;;;;;;;5114376;28;20047;-83
2022/07/07 14:03:50;;;;;;;0.00;0.00;;;;;;;;;;5113963;28;20112;-82
2022/07/07 14:06:16;;;;;;;0.00;0.00;;;;;;;;;;5097218;28;20038;-83
2022/07/07 14:08:42;;;;;;;0.00;0.00;;;;;;;;;;5115332;28;20106;-83
2022/07/07 14:11:09;;;;;;;0.00;0.00;;;;;;;;;;5114152;28;20036;-83
2022/07/07 14:13:35;;;;;;;0.00;0.00;;;;;;;;;;5113909;28;20363;-83
2022/07/07 14:16:02;;;;;;;0.00;0.00;;;;;;;;;;5114114;28;20055;-83
2022/07/07 14:18:28;;;;;;;0.00;0.00;;;;;;;;;;5113850;28;20035;-83
2022/07/07 14:20:54;;;;;;;0.00;0.00;;;;;;;;;;5114358;28;20043;-82
2022/07/07 14:23:20;;;;;;;0.00;0.00;;;;;;;;;;5114954;28;20474;-83
2022/07/07 14:25:46;;;;;;;0.00;0.00;;;;;;;;;;5113803;28;20043;-82
2022/07/07 14:28:12;;;;;;;0.00;0.00;;;;;;;;;;5113882;28;20042;-83
2022/07/07 14:30:38;;;;;;;0.00;0.00;;;;;;;;;;5113801;28;20109;-82
2022/07/07 14:33:04;;;;;;;0.00;0.00;;;;;;;;;;5114829;28;20469;-82
2022/07/07 14:35:30;;;;;;;0.00;0.00;;;;;;;;;;5113851;28;20051;-82
2022/07/07 14:37:56;;;;;;;0.00;0.00;;;;;;;;;;5113348;28;20505;-83
2022/07/07 14:40:22;;;;;;;0.00;0.00;;;;;;;;;;5113661;28;20200;-82
2022/07/07 14:42:47;;;;;;;0.00;0.00;;;;;;;;;;5113405;28;20055;-83
2022/07/07 14:45:14;;;;;;;0.00;0.00;;;;;;;;;;5113181;28;20036;-82